Aérodrome :
LOGIN :

S'inscrire | Disclaimer

   EN    FR    IT 

 










Légende :    VFR   VFR Marginal   IFR   IFR Intensif   IFR Très Intensif
Visi : 
Plafond : 
>= 8 km
>= 3000ft
5 à 8 km
1000 à 3000 ft
1500m à 5 km
500 à 1000 ft
800 à 1500m
200 à 500 ft
< 800m
< 200 ft
Symboles :   Orages  Brouillard  Fortes neiges  Fortes précipitations  Vent > 20 kt
SIGMETs :   Divers  Orages  Givrage  Turbulence  Onde Orograph.  Cendres Volcan.







- Altitude de l'aérodrome : 242 ft
- Code IATA : DUB


EIDW - Dublin

DERNIER METAR :
  • 171700Z 22014KT 190V250 9999 FEW018CB BKN060 19/12 Q1004 NOSIG

METARs EXPIRÉS :
  • 171630Z 23013KT 9999 FEW018CB BKN060 19/12 Q1004 NOSIG
  • 171600Z 22012KT 190V250 9999 FEW018CB BKN060 19/12 Q1004 NOSIG
  • 171530Z 24010KT 200V260 9999 FEW018CB SCT060 19/13 Q1005 NOSIG
  • 171500Z 23013KT 9999 FEW018CB SCT060 19/12 Q1005 NOSIG
  • 171430Z 22009KT 9999 FEW018CB SCT060 18/13 Q1005 NOSIG

TAF TAF EIDW
Valide du 17 à 12h jusqu'au 18 à 12h UTC


171100Z 1712/1812 23015KT 9999 FEW018 SCT025
TEMPO 1712/1724 24015G25KT -SHRA SCT014 FEW018CB
PROB30
TEMPO 1716/1724 6000 SHRA BKN014 SCT018CB
BECMG 1722/1724 27016KT
BECMG 1802/1805 24014KT
BECMG 1808/1811 25018G28KT
TEMPO 1810/1812 -SHRA SCT014 FEW018CB
Pas de NOTAMs connus pour ce terrain.



MET'MAP, la Météo Aéronautique d'un coup d'oeil ! - Copyright ORBIFLY Décembre 2007 - Disclaimer

ORBIFLY MET'MAP TEAM :

Programmation & Développement : Alexandra Zaïnal
Conception & Développement : Baudouin d'Aumeries
Co-Programmation & Développement : Marc-Olivier Méhu
Soutien technique & logistique : Manuel Goepfert

Contact : metmap@orbifly.com




SOURCES & CREDITS :

   NOAA